sensor_id;sensor_type;location;lat;lon;timestamp;P1;durP1;ratioP1;P2;durP2;ratioP2
13975;SDS011;7062;49.792;9.946;2024-03-02T00:00:03;21.00;;;18.60;;
13975;SDS011;7062;49.792;9.946;2024-03-02T00:02:45;24.33;;;18.17;;
13975;SDS011;7062;49.792;9.946;2024-03-02T00:05:11;24.53;;;18.37;;
13975;SDS011;7062;49.792;9.946;2024-03-02T00:07:40;22.67;;;18.33;;
13975;SDS011;7062;49.792;9.946;2024-03-02T00:10:10;21.53;;;17.53;;
13975;SDS011;7062;49.792;9.946;2024-03-02T00:12:41;23.47;;;17.93;;
13975;SDS011;7062;49.792;9.946;2024-03-02T00:17:55;23.93;;;17.97;;
13975;SDS011;7062;49.792;9.946;2024-03-02T00:20:24;22.57;;;18.00;;
13975;SDS011;7062;49.792;9.946;2024-03-02T00:23:05;21.50;;;17.47;;
13975;SDS011;7062;49.792;9.946;2024-03-02T00:25:38;21.10;;;17.40;;
13975;SDS011;7062;49.792;9.946;2024-03-02T00:28:10;21.33;;;17.10;;
13975;SDS011;7062;49.792;9.946;2024-03-02T00:33:19;24.53;;;18.20;;
13975;SDS011;7062;49.792;9.946;2024-03-02T00:35:46;26.20;;;17.80;;
13975;SDS011;7062;49.792;9.946;2024-03-02T00:38:13;22.90;;;19.47;;
13975;SDS011;7062;49.792;9.946;2024-03-02T00:40:43;24.23;;;18.30;;
13975;SDS011;7062;49.792;9.946;2024-03-02T00:46:01;21.60;;;18.47;;
13975;SDS011;7062;49.792;9.946;2024-03-02T00:48:26;23.80;;;18.70;;
13975;SDS011;7062;49.792;9.946;2024-03-02T00:50:52;23.07;;;18.13;;
13975;SDS011;7062;49.792;9.946;2024-03-02T00:53:18;24.07;;;18.93;;
13975;SDS011;7062;49.792;9.946;2024-03-02T00:55:48;24.97;;;19.20;;
13975;SDS011;7062;49.792;9.946;2024-03-02T00:58:14;25.17;;;18.97;;
13975;SDS011;7062;49.792;9.946;2024-03-02T01:00:40;28.20;;;20.13;;
13975;SDS011;7062;49.792;9.946;2024-03-02T01:03:05;23.03;;;18.53;;
13975;SDS011;7062;49.792;9.946;2024-03-02T01:05:32;24.83;;;19.93;;
13975;SDS011;7062;49.792;9.946;2024-03-02T01:07:58;27.63;;;19.37;;
13975;SDS011;7062;49.792;9.946;2024-03-02T01:10:24;22.70;;;18.47;;
13975;SDS011;7062;49.792;9.946;2024-03-02T01:12:51;22.97;;;18.30;;
13975;SDS011;7062;49.792;9.946;2024-03-02T01:15:16;25.57;;;18.93;;
13975;SDS011;7062;49.792;9.946;2024-03-02T01:17:42;22.70;;;20.23;;
13975;SDS011;7062;49.792;9.946;2024-03-02T01:20:08;23.63;;;18.23;;
13975;SDS011;7062;49.792;9.946;2024-03-02T01:22:34;24.00;;;19.07;;
13975;SDS011;7062;49.792;9.946;2024-03-02T01:25:00;22.77;;;18.67;;
13975;SDS011;7062;49.792;9.946;2024-03-02T01:27:27;23.77;;;17.37;;
13975;SDS011;7062;49.792;9.946;2024-03-02T01:29:53;25.13;;;19.30;;
13975;SDS011;7062;49.792;9.946;2024-03-02T01:32:19;21.57;;;17.73;;
13975;SDS011;7062;49.792;9.946;2024-03-02T01:34:45;26.67;;;18.50;;
13975;SDS011;7062;49.792;9.946;2024-03-02T01:37:11;28.70;;;19.03;;
13975;SDS011;7062;49.792;9.946;2024-03-02T01:39:37;21.73;;;16.53;;
13975;SDS011;7062;49.792;9.946;2024-03-02T01:42:02;22.13;;;18.13;;
13975;SDS011;7062;49.792;9.946;2024-03-02T01:44:28;22.63;;;17.00;;
13975;SDS011;7062;49.792;9.946;2024-03-02T01:46:54;24.00;;;17.17;;
13975;SDS011;7062;49.792;9.946;2024-03-02T01:49:19;22.33;;;17.27;;
13975;SDS011;7062;49.792;9.946;2024-03-02T01:51:45;21.20;;;17.17;;
13975;SDS011;7062;49.792;9.946;2024-03-02T01:54:11;24.90;;;17.83;;
13975;SDS011;7062;49.792;9.946;2024-03-02T01:56:36;26.40;;;20.00;;
13975;SDS011;7062;49.792;9.946;2024-03-02T01:59:02;25.07;;;18.30;;
13975;SDS011;7062;49.792;9.946;2024-03-02T02:01:28;22.63;;;17.30;;
13975;SDS011;7062;49.792;9.946;2024-03-02T02:03:54;24.53;;;19.10;;
13975;SDS011;7062;49.792;9.946;2024-03-02T02:06:20;30.50;;;20.83;;
13975;SDS011;7062;49.792;9.946;2024-03-02T02:08:46;24.60;;;18.43;;
13975;SDS011;7062;49.792;9.946;2024-03-02T02:11:14;25.03;;;19.77;;
13975;SDS011;7062;49.792;9.946;2024-03-02T02:13:40;29.20;;;19.43;;
13975;SDS011;7062;49.792;9.946;2024-03-02T02:16:09;22.47;;;17.33;;
13975;SDS011;7062;49.792;9.946;2024-03-02T02:18:35;27.50;;;19.17;;
13975;SDS011;7062;49.792;9.946;2024-03-02T02:21:03;20.43;;;16.80;;
13975;SDS011;7062;49.792;9.946;2024-03-02T02:23:29;24.33;;;18.63;;
13975;SDS011;7062;49.792;9.946;2024-03-02T02:25:54;25.63;;;19.87;;
13975;SDS011;7062;49.792;9.946;2024-03-02T02:28:20;19.90;;;16.47;;
13975;SDS011;7062;49.792;9.946;2024-03-02T02:30:46;20.80;;;17.23;;
13975;SDS011;7062;49.792;9.946;2024-03-02T02:33:11;20.27;;;16.93;;
13975;SDS011;7062;49.792;9.946;2024-03-02T02:35:37;23.70;;;17.33;;
13975;SDS011;7062;49.792;9.946;2024-03-02T02:38:02;24.13;;;18.07;;
13975;SDS011;7062;49.792;9.946;2024-03-02T02:40:29;22.70;;;17.47;;
13975;SDS011;7062;49.792;9.946;2024-03-02T02:42:55;22.07;;;17.90;;
13975;SDS011;7062;49.792;9.946;2024-03-02T02:45:24;21.00;;;18.00;;
13975;SDS011;7062;49.792;9.946;2024-03-02T02:47:50;25.20;;;17.47;;
13975;SDS011;7062;49.792;9.946;2024-03-02T02:50:16;20.40;;;17.80;;
13975;SDS011;7062;49.792;9.946;2024-03-02T02:52:42;20.73;;;16.67;;
13975;SDS011;7062;49.792;9.946;2024-03-02T02:55:09;20.43;;;17.07;;
13975;SDS011;7062;49.792;9.946;2024-03-02T02:57:36;19.40;;;17.27;;
13975;SDS011;7062;49.792;9.946;2024-03-02T03:00:06;20.40;;;16.93;;
13975;SDS011;7062;49.792;9.946;2024-03-02T03:02:39;22.27;;;18.13;;
13975;SDS011;7062;49.792;9.946;2024-03-02T03:05:11;22.00;;;16.73;;
13975;SDS011;7062;49.792;9.946;2024-03-02T03:07:39;24.60;;;18.30;;
13975;SDS011;7062;49.792;9.946;2024-03-02T03:10:05;25.57;;;17.97;;
13975;SDS011;7062;49.792;9.946;2024-03-02T03:12:32;26.13;;;17.33;;
13975;SDS011;7062;49.792;9.946;2024-03-02T03:14:58;24.97;;;18.50;;
13975;SDS011;7062;49.792;9.946;2024-03-02T03:17:25;21.97;;;17.77;;
13975;SDS011;7062;49.792;9.946;2024-03-02T03:19:51;26.87;;;18.20;;
13975;SDS011;7062;49.792;9.946;2024-03-02T03:22:16;24.33;;;18.43;;
13975;SDS011;7062;49.792;9.946;2024-03-02T03:24:42;25.97;;;18.27;;
13975;SDS011;7062;49.792;9.946;2024-03-02T03:27:08;20.00;;;17.37;;
13975;SDS011;7062;49.792;9.946;2024-03-02T03:29:35;19.57;;;16.43;;
13975;SDS011;7062;49.792;9.946;2024-03-02T03:32:02;24.00;;;17.40;;
13975;SDS011;7062;49.792;9.946;2024-03-02T03:34:28;22.67;;;17.23;;
13975;SDS011;7062;49.792;9.946;2024-03-02T03:36:54;20.30;;;17.13;;
13975;SDS011;7062;49.792;9.946;2024-03-02T03:39:20;19.33;;;16.77;;
13975;SDS011;7062;49.792;9.946;2024-03-02T03:41:45;20.87;;;17.30;;
13975;SDS011;7062;49.792;9.946;2024-03-02T03:44:11;21.60;;;17.93;;
13975;SDS011;7062;49.792;9.946;2024-03-02T03:46:37;23.07;;;18.03;;
13975;SDS011;7062;49.792;9.946;2024-03-02T03:49:03;20.17;;;16.07;;
13975;SDS011;7062;49.792;9.946;2024-03-02T03:51:28;22.73;;;17.93;;
13975;SDS011;7062;49.792;9.946;2024-03-02T03:53:55;22.80;;;18.37;;
13975;SDS011;7062;49.792;9.946;2024-03-02T03:56:21;23.83;;;17.40;;
13975;SDS011;7062;49.792;9.946;2024-03-02T03:58:46;20.80;;;17.67;;
13975;SDS011;7062;49.792;9.946;2024-03-02T04:01:12;21.40;;;16.37;;
13975;SDS011;7062;49.792;9.946;2024-03-02T04:03:38;19.93;;;15.87;;
13975;SDS011;7062;49.792;9.946;2024-03-02T04:06:03;20.53;;;15.77;;
13975;SDS011;7062;49.792;9.946;2024-03-02T04:08:29;21.97;;;16.80;;
13975;SDS011;7062;49.792;9.946;2024-03-02T04:10:58;22.20;;;18.10;;
13975;SDS011;7062;49.792;9.946;2024-03-02T04:13:23;21.03;;;16.30;;
13975;SDS011;7062;49.792;9.946;2024-03-02T04:15:49;22.67;;;15.73;;
13975;SDS011;7062;49.792;9.946;2024-03-02T04:18:15;20.37;;;15.70;;
13975;SDS011;7062;49.792;9.946;2024-03-02T04:20:41;23.10;;;17.13;;
13975;SDS011;7062;49.792;9.946;2024-03-02T04:23:06;19.93;;;14.90;;
13975;SDS011;7062;49.792;9.946;2024-03-02T04:25:32;20.67;;;16.37;;
13975;SDS011;7062;49.792;9.946;2024-03-02T04:27:58;20.07;;;15.63;;
13975;SDS011;7062;49.792;9.946;2024-03-02T04:30:24;18.93;;;16.40;;
13975;SDS011;7062;49.792;9.946;2024-03-02T04:32:50;20.37;;;15.47;;
13975;SDS011;7062;49.792;9.946;2024-03-02T04:35:16;21.77;;;16.03;;
13975;SDS011;7062;49.792;9.946;2024-03-02T04:37:41;18.60;;;15.57;;
13975;SDS011;7062;49.792;9.946;2024-03-02T04:40:07;21.27;;;15.93;;
13975;SDS011;7062;49.792;9.946;2024-03-02T04:42:34;17.80;;;15.07;;
13975;SDS011;7062;49.792;9.946;2024-03-02T04:45:00;25.37;;;17.37;;
13975;SDS011;7062;49.792;9.946;2024-03-02T04:47:26;21.70;;;16.87;;
13975;SDS011;7062;49.792;9.946;2024-03-02T04:49:51;20.63;;;17.13;;
13975;SDS011;7062;49.792;9.946;2024-03-02T04:52:17;19.43;;;15.97;;
13975;SDS011;7062;49.792;9.946;2024-03-02T04:54:42;20.60;;;16.33;;
13975;SDS011;7062;49.792;9.946;2024-03-02T04:57:27;19.70;;;15.40;;
13975;SDS011;7062;49.792;9.946;2024-03-02T04:59:52;19.27;;;16.13;;
13975;SDS011;7062;49.792;9.946;2024-03-02T05:02:18;21.43;;;15.20;;
13975;SDS011;7062;49.792;9.946;2024-03-02T05:04:44;20.47;;;15.77;;
13975;SDS011;7062;49.792;9.946;2024-03-02T05:07:09;18.27;;;15.27;;
13975;SDS011;7062;49.792;9.946;2024-03-02T05:09:35;17.47;;;14.67;;
13975;SDS011;7062;49.792;9.946;2024-03-02T05:12:01;18.03;;;14.90;;
13975;SDS011;7062;49.792;9.946;2024-03-02T05:14:42;17.80;;;15.33;;
13975;SDS011;7062;49.792;9.946;2024-03-02T05:17:07;22.03;;;15.87;;
13975;SDS011;7062;49.792;9.946;2024-03-02T05:19:33;20.13;;;16.17;;
13975;SDS011;7062;49.792;9.946;2024-03-02T05:21:59;19.37;;;15.17;;
13975;SDS011;7062;49.792;9.946;2024-03-02T05:24:24;20.53;;;16.30;;
13975;SDS011;7062;49.792;9.946;2024-03-02T05:26:52;18.40;;;15.47;;
13975;SDS011;7062;49.792;9.946;2024-03-02T05:29:18;19.17;;;15.27;;
13975;SDS011;7062;49.792;9.946;2024-03-02T05:31:44;18.80;;;15.50;;
13975;SDS011;7062;49.792;9.946;2024-03-02T05:34:09;18.27;;;15.43;;
13975;SDS011;7062;49.792;9.946;2024-03-02T05:36:35;19.00;;;14.87;;
13975;SDS011;7062;49.792;9.946;2024-03-02T05:39:02;17.07;;;14.43;;
13975;SDS011;7062;49.792;9.946;2024-03-02T05:41:30;22.67;;;14.90;;
13975;SDS011;7062;49.792;9.946;2024-03-02T05:43:56;17.90;;;14.20;;
13975;SDS011;7062;49.792;9.946;2024-03-02T05:46:22;17.73;;;13.30;;
13975;SDS011;7062;49.792;9.946;2024-03-02T05:48:47;17.80;;;14.70;;
13975;SDS011;7062;49.792;9.946;2024-03-02T05:51:13;18.47;;;14.43;;
13975;SDS011;7062;49.792;9.946;2024-03-02T05:53:38;21.50;;;14.53;;
13975;SDS011;7062;49.792;9.946;2024-03-02T05:56:04;18.70;;;14.73;;
13975;SDS011;7062;49.792;9.946;2024-03-02T05:58:31;15.90;;;14.10;;
13975;SDS011;7062;49.792;9.946;2024-03-02T06:01:15;19.00;;;15.20;;
13975;SDS011;7062;49.792;9.946;2024-03-02T06:03:43;18.03;;;14.63;;
13975;SDS011;7062;49.792;9.946;2024-03-02T06:06:09;17.60;;;14.53;;
13975;SDS011;7062;49.792;9.946;2024-03-02T06:08:35;20.37;;;15.23;;
13975;SDS011;7062;49.792;9.946;2024-03-02T06:11:00;19.20;;;14.53;;
13975;SDS011;7062;49.792;9.946;2024-03-02T06:13:26;15.93;;;14.23;;
13975;SDS011;7062;49.792;9.946;2024-03-02T06:15:52;18.97;;;15.63;;
13975;SDS011;7062;49.792;9.946;2024-03-02T06:18:18;18.37;;;14.90;;
13975;SDS011;7062;49.792;9.946;2024-03-02T06:20:43;18.07;;;15.00;;
13975;SDS011;7062;49.792;9.946;2024-03-02T06:23:09;20.47;;;16.07;;
13975;SDS011;7062;49.792;9.946;2024-03-02T06:25:35;17.87;;;14.90;;
13975;SDS011;7062;49.792;9.946;2024-03-02T06:28:00;21.60;;;15.70;;
13975;SDS011;7062;49.792;9.946;2024-03-02T06:30:26;18.90;;;15.97;;
13975;SDS011;7062;49.792;9.946;2024-03-02T06:32:52;19.00;;;15.73;;
13975;SDS011;7062;49.792;9.946;2024-03-02T06:35:17;20.13;;;14.97;;
13975;SDS011;7062;49.792;9.946;2024-03-02T06:37:44;18.57;;;13.90;;
13975;SDS011;7062;49.792;9.946;2024-03-02T06:40:10;20.57;;;14.93;;
13975;SDS011;7062;49.792;9.946;2024-03-02T06:42:35;20.43;;;16.27;;
13975;SDS011;7062;49.792;9.946;2024-03-02T06:45:01;17.63;;;13.37;;
13975;SDS011;7062;49.792;9.946;2024-03-02T06:47:28;18.40;;;15.13;;
13975;SDS011;7062;49.792;9.946;2024-03-02T06:49:54;21.20;;;16.10;;
13975;SDS011;7062;49.792;9.946;2024-03-02T06:52:19;19.50;;;14.37;;
13975;SDS011;7062;49.792;9.946;2024-03-02T06:54:46;18.93;;;15.03;;
13975;SDS011;7062;49.792;9.946;2024-03-02T06:57:12;18.43;;;15.83;;
13975;SDS011;7062;49.792;9.946;2024-03-02T06:59:37;22.30;;;16.40;;
13975;SDS011;7062;49.792;9.946;2024-03-02T07:02:03;21.67;;;17.03;;
13975;SDS011;7062;49.792;9.946;2024-03-02T07:04:29;19.27;;;14.57;;
13975;SDS011;7062;49.792;9.946;2024-03-02T07:06:54;18.53;;;16.47;;
13975;SDS011;7062;49.792;9.946;2024-03-02T07:09:20;18.67;;;15.10;;
13975;SDS011;7062;49.792;9.946;2024-03-02T07:11:48;17.80;;;15.27;;
13975;SDS011;7062;49.792;9.946;2024-03-02T07:14:14;21.10;;;16.50;;
13975;SDS011;7062;49.792;9.946;2024-03-02T07:16:39;16.17;;;14.47;;
13975;SDS011;7062;49.792;9.946;2024-03-02T07:19:05;19.63;;;15.67;;
13975;SDS011;7062;49.792;9.946;2024-03-02T07:21:31;18.23;;;15.33;;
13975;SDS011;7062;49.792;9.946;2024-03-02T07:23:58;17.47;;;15.07;;
13975;SDS011;7062;49.792;9.946;2024-03-02T07:26:24;21.47;;;15.83;;
13975;SDS011;7062;49.792;9.946;2024-03-02T07:28:50;19.47;;;17.37;;
13975;SDS011;7062;49.792;9.946;2024-03-02T07:31:16;18.03;;;15.83;;
13975;SDS011;7062;49.792;9.946;2024-03-02T07:33:45;19.80;;;16.53;;
13975;SDS011;7062;49.792;9.946;2024-03-02T07:36:11;22.90;;;16.90;;
13975;SDS011;7062;49.792;9.946;2024-03-02T07:38:38;23.53;;;16.80;;
13975;SDS011;7062;49.792;9.946;2024-03-02T07:41:03;20.07;;;16.20;;
13975;SDS011;7062;49.792;9.946;2024-03-02T07:43:30;17.17;;;14.80;;
13975;SDS011;7062;49.792;9.946;2024-03-02T07:45:58;18.83;;;15.67;;
13975;SDS011;7062;49.792;9.946;2024-03-02T07:48:23;18.00;;;16.00;;
13975;SDS011;7062;49.792;9.946;2024-03-02T07:50:50;18.83;;;16.23;;
13975;SDS011;7062;49.792;9.946;2024-03-02T07:53:15;18.27;;;15.47;;
13975;SDS011;7062;49.792;9.946;2024-03-02T07:55:41;18.90;;;15.33;;
13975;SDS011;7062;49.792;9.946;2024-03-02T07:58:07;18.87;;;16.20;;
13975;SDS011;7062;49.792;9.946;2024-03-02T08:00:33;18.00;;;15.87;;
13975;SDS011;7062;49.792;9.946;2024-03-02T08:03:00;16.30;;;13.93;;
13975;SDS011;7062;49.792;9.946;2024-03-02T08:05:26;19.90;;;16.60;;
13975;SDS011;7062;49.792;9.946;2024-03-02T08:07:52;16.67;;;14.90;;
13975;SDS011;7062;49.792;9.946;2024-03-02T08:10:18;18.67;;;15.80;;
13975;SDS011;7062;49.792;9.946;2024-03-02T08:12:44;17.97;;;15.63;;
13975;SDS011;7062;49.792;9.946;2024-03-02T08:15:10;16.70;;;14.97;;
13975;SDS011;7062;49.792;9.946;2024-03-02T08:17:37;18.07;;;15.57;;
13975;SDS011;7062;49.792;9.946;2024-03-02T08:20:09;19.27;;;16.63;;
13975;SDS011;7062;49.792;9.946;2024-03-02T08:22:36;19.47;;;15.93;;
13975;SDS011;7062;49.792;9.946;2024-03-02T08:25:03;18.83;;;15.93;;
13975;SDS011;7062;49.792;9.946;2024-03-02T08:27:29;19.63;;;16.40;;
13975;SDS011;7062;49.792;9.946;2024-03-02T08:29:57;17.93;;;16.03;;
13975;SDS011;7062;49.792;9.946;2024-03-02T08:32:22;19.77;;;15.23;;
13975;SDS011;7062;49.792;9.946;2024-03-02T08:34:48;18.10;;;15.80;;
13975;SDS011;7062;49.792;9.946;2024-03-02T08:37:13;19.40;;;15.90;;
13975;SDS011;7062;49.792;9.946;2024-03-02T08:39:39;19.77;;;15.83;;
13975;SDS011;7062;49.792;9.946;2024-03-02T08:42:05;20.67;;;16.40;;
13975;SDS011;7062;49.792;9.946;2024-03-02T08:44:31;17.30;;;14.43;;
13975;SDS011;7062;49.792;9.946;2024-03-02T08:46:56;17.53;;;15.40;;
13975;SDS011;7062;49.792;9.946;2024-03-02T08:49:22;17.90;;;15.00;;
13975;SDS011;7062;49.792;9.946;2024-03-02T08:51:48;17.53;;;14.60;;
13975;SDS011;7062;49.792;9.946;2024-03-02T08:54:22;18.47;;;16.30;;
13975;SDS011;7062;49.792;9.946;2024-03-02T08:56:48;18.50;;;16.43;;
13975;SDS011;7062;49.792;9.946;2024-03-02T08:59:15;16.93;;;14.33;;
13975;SDS011;7062;49.792;9.946;2024-03-02T09:01:41;14.80;;;13.07;;
13975;SDS011;7062;49.792;9.946;2024-03-02T09:04:07;16.83;;;13.43;;
13975;SDS011;7062;49.792;9.946;2024-03-02T09:06:35;16.07;;;14.37;;
13975;SDS011;7062;49.792;9.946;2024-03-02T09:09:01;15.60;;;12.80;;
13975;SDS011;7062;49.792;9.946;2024-03-02T09:11:27;15.57;;;13.30;;
13975;SDS011;7062;49.792;9.946;2024-03-02T09:13:53;14.77;;;12.83;;
13975;SDS011;7062;49.792;9.946;2024-03-02T09:16:21;15.10;;;13.17;;
13975;SDS011;7062;49.792;9.946;2024-03-02T09:18:46;15.00;;;13.33;;
13975;SDS011;7062;49.792;9.946;2024-03-02T09:21:12;13.53;;;12.13;;
13975;SDS011;7062;49.792;9.946;2024-03-02T09:23:37;16.47;;;13.53;;
13975;SDS011;7062;49.792;9.946;2024-03-02T09:26:05;15.73;;;13.83;;
13975;SDS011;7062;49.792;9.946;2024-03-02T09:28:30;15.77;;;12.87;;
13975;SDS011;7062;49.792;9.946;2024-03-02T09:30:56;15.33;;;12.83;;
13975;SDS011;7062;49.792;9.946;2024-03-02T09:33:22;16.73;;;13.13;;
13975;SDS011;7062;49.792;9.946;2024-03-02T09:35:47;15.07;;;13.53;;
13975;SDS011;7062;49.792;9.946;2024-03-02T09:38:13;15.40;;;13.10;;
13975;SDS011;7062;49.792;9.946;2024-03-02T09:40:41;16.93;;;12.10;;
13975;SDS011;7062;49.792;9.946;2024-03-02T09:43:07;14.77;;;13.27;;
13975;SDS011;7062;49.792;9.946;2024-03-02T09:45:33;14.53;;;13.03;;
13975;SDS011;7062;49.792;9.946;2024-03-02T09:47:59;15.63;;;13.03;;
13975;SDS011;7062;49.792;9.946;2024-03-02T09:50:25;14.73;;;13.20;;
13975;SDS011;7062;49.792;9.946;2024-03-02T09:52:50;14.83;;;12.47;;
13975;SDS011;7062;49.792;9.946;2024-03-02T09:55:18;13.97;;;12.23;;
13975;SDS011;7062;49.792;9.946;2024-03-02T09:57:44;14.27;;;12.23;;
13975;SDS011;7062;49.792;9.946;2024-03-02T10:00:11;14.30;;;12.53;;
13975;SDS011;7062;49.792;9.946;2024-03-02T10:02:40;15.53;;;12.27;;
13975;SDS011;7062;49.792;9.946;2024-03-02T10:05:06;15.13;;;12.33;;
13975;SDS011;7062;49.792;9.946;2024-03-02T10:07:35;12.70;;;11.33;;
13975;SDS011;7062;49.792;9.946;2024-03-02T10:10:14;13.40;;;12.00;;
13975;SDS011;7062;49.792;9.946;2024-03-02T10:12:40;12.73;;;11.43;;
13975;SDS011;7062;49.792;9.946;2024-03-02T10:15:06;11.37;;;10.27;;
13975;SDS011;7062;49.792;9.946;2024-03-02T10:17:32;13.27;;;11.90;;
13975;SDS011;7062;49.792;9.946;2024-03-02T10:19:58;12.43;;;11.23;;
13975;SDS011;7062;49.792;9.946;2024-03-02T10:22:24;12.80;;;11.60;;
13975;SDS011;7062;49.792;9.946;2024-03-02T10:24:51;10.57;;;9.57;;
13975;SDS011;7062;49.792;9.946;2024-03-02T10:27:22;11.20;;;10.13;;
13975;SDS011;7062;49.792;9.946;2024-03-02T10:29:48;11.27;;;10.03;;
13975;SDS011;7062;49.792;9.946;2024-03-02T10:32:15;10.57;;;9.57;;
13975;SDS011;7062;49.792;9.946;2024-03-02T10:34:41;10.60;;;9.67;;
13975;SDS011;7062;49.792;9.946;2024-03-02T10:37:10;11.27;;;10.17;;
13975;SDS011;7062;49.792;9.946;2024-03-02T10:39:36;10.67;;;9.67;;
13975;SDS011;7062;49.792;9.946;2024-03-02T10:42:04;10.90;;;9.90;;
13975;SDS011;7062;49.792;9.946;2024-03-02T10:44:31;10.00;;;9.00;;
13975;SDS011;7062;49.792;9.946;2024-03-02T10:47:01;10.10;;;9.10;;
13975;SDS011;7062;49.792;9.946;2024-03-02T10:49:31;10.10;;;9.20;;
13975;SDS011;7062;49.792;9.946;2024-03-02T10:51:58;9.57;;;8.67;;
13975;SDS011;7062;49.792;9.946;2024-03-02T10:54:24;10.10;;;9.10;;
13975;SDS011;7062;49.792;9.946;2024-03-02T10:56:55;10.27;;;9.27;;
13975;SDS011;7062;49.792;9.946;2024-03-02T10:59:26;9.60;;;8.70;;
13975;SDS011;7062;49.792;9.946;2024-03-02T11:01:56;10.07;;;9.07;;
13975;SDS011;7062;49.792;9.946;2024-03-02T11:04:24;9.20;;;8.37;;
13975;SDS011;7062;49.792;9.946;2024-03-02T11:06:51;9.57;;;8.67;;
13975;SDS011;7062;49.792;9.946;2024-03-02T11:09:20;10.13;;;9.20;;
13975;SDS011;7062;49.792;9.946;2024-03-02T11:12:02;8.53;;;7.77;;
13975;SDS011;7062;49.792;9.946;2024-03-02T11:14:31;10.13;;;9.20;;
13975;SDS011;7062;49.792;9.946;2024-03-02T11:17:00;9.03;;;8.23;;
13975;SDS011;7062;49.792;9.946;2024-03-02T11:19:28;8.97;;;8.07;;
13975;SDS011;7062;49.792;9.946;2024-03-02T11:21:55;9.23;;;8.23;;
13975;SDS011;7062;49.792;9.946;2024-03-02T11:26:53;8.63;;;7.83;;
13975;SDS011;7062;49.792;9.946;2024-03-02T11:32:04;10.80;;;9.47;;
13975;SDS011;7062;49.792;9.946;2024-03-02T11:34:31;7.67;;;6.97;;
13975;SDS011;7062;49.792;9.946;2024-03-02T11:36:58;8.30;;;7.50;;
13975;SDS011;7062;49.792;9.946;2024-03-02T11:39:26;7.53;;;6.90;;
13975;SDS011;7062;49.792;9.946;2024-03-02T11:41:52;8.00;;;7.37;;
13975;SDS011;7062;49.792;9.946;2024-03-02T11:44:18;7.60;;;6.47;;
13975;SDS011;7062;49.792;9.946;2024-03-02T11:46:44;7.77;;;7.10;;
13975;SDS011;7062;49.792;9.946;2024-03-02T11:49:14;8.57;;;7.03;;
13975;SDS011;7062;49.792;9.946;2024-03-02T11:51:50;7.57;;;6.80;;
13975;SDS011;7062;49.792;9.946;2024-03-02T11:54:25;6.17;;;5.67;;
13975;SDS011;7062;49.792;9.946;2024-03-02T11:56:53;6.53;;;6.03;;
13975;SDS011;7062;49.792;9.946;2024-03-02T11:59:20;7.23;;;6.63;;
13975;SDS011;7062;49.792;9.946;2024-03-02T12:01:46;6.40;;;5.90;;
13975;SDS011;7062;49.792;9.946;2024-03-02T12:04:13;5.43;;;5.03;;
13975;SDS011;7062;49.792;9.946;2024-03-02T12:06:39;6.73;;;5.33;;
13975;SDS011;7062;49.792;9.946;2024-03-02T12:09:05;5.60;;;5.13;;
13975;SDS011;7062;49.792;9.946;2024-03-02T12:11:30;6.10;;;5.50;;
13975;SDS011;7062;49.792;9.946;2024-03-02T12:13:56;5.50;;;5.10;;
13975;SDS011;7062;49.792;9.946;2024-03-02T12:16:24;5.50;;;5.03;;
13975;SDS011;7062;49.792;9.946;2024-03-02T12:18:50;5.53;;;5.13;;
13975;SDS011;7062;49.792;9.946;2024-03-02T12:21:16;5.73;;;5.20;;
13975;SDS011;7062;49.792;9.946;2024-03-02T12:23:42;6.10;;;5.57;;
13975;SDS011;7062;49.792;9.946;2024-03-02T12:26:08;5.93;;;5.50;;
13975;SDS011;7062;49.792;9.946;2024-03-02T12:28:34;5.80;;;5.33;;
13975;SDS011;7062;49.792;9.946;2024-03-02T12:31:00;6.00;;;5.50;;
13975;SDS011;7062;49.792;9.946;2024-03-02T12:33:25;5.33;;;4.93;;
13975;SDS011;7062;49.792;9.946;2024-03-02T12:35:52;5.37;;;4.97;;
13975;SDS011;7062;49.792;9.946;2024-03-02T12:38:18;5.33;;;4.93;;
13975;SDS011;7062;49.792;9.946;2024-03-02T12:40:44;5.17;;;4.77;;
13975;SDS011;7062;49.792;9.946;2024-03-02T12:43:12;6.67;;;6.17;;
13975;SDS011;7062;49.792;9.946;2024-03-02T12:45:38;5.80;;;5.40;;
13975;SDS011;7062;49.792;9.946;2024-03-02T12:48:04;5.63;;;5.23;;
13975;SDS011;7062;49.792;9.946;2024-03-02T12:50:30;6.83;;;6.33;;
13975;SDS011;7062;49.792;9.946;2024-03-02T12:52:56;4.87;;;4.47;;
13975;SDS011;7062;49.792;9.946;2024-03-02T12:55:22;5.50;;;5.10;;
13975;SDS011;7062;49.792;9.946;2024-03-02T12:57:49;5.70;;;5.30;;
13975;SDS011;7062;49.792;9.946;2024-03-02T13:00:18;6.00;;;5.60;;
13975;SDS011;7062;49.792;9.946;2024-03-02T13:02:45;6.63;;;5.07;;
13975;SDS011;7062;49.792;9.946;2024-03-02T13:05:11;4.50;;;4.20;;
13975;SDS011;7062;49.792;9.946;2024-03-02T13:07:38;4.57;;;4.27;;
13975;SDS011;7062;49.792;9.946;2024-03-02T13:10:06;4.27;;;3.97;;
13975;SDS011;7062;49.792;9.946;2024-03-02T13:12:36;6.03;;;4.47;;
13975;SDS011;7062;49.792;9.946;2024-03-02T13:15:02;3.80;;;3.60;;
13975;SDS011;7062;49.792;9.946;2024-03-02T13:17:29;4.20;;;3.90;;
13975;SDS011;7062;49.792;9.946;2024-03-02T13:19:55;3.80;;;3.50;;
13975;SDS011;7062;49.792;9.946;2024-03-02T13:22:21;4.40;;;4.10;;
13975;SDS011;7062;49.792;9.946;2024-03-02T13:24:48;5.27;;;4.87;;
13975;SDS011;7062;49.792;9.946;2024-03-02T13:27:19;4.27;;;3.97;;
13975;SDS011;7062;49.792;9.946;2024-03-02T13:29:45;3.93;;;3.50;;
13975;SDS011;7062;49.792;9.946;2024-03-02T13:32:15;4.37;;;3.90;;
13975;SDS011;7062;49.792;9.946;2024-03-02T13:34:41;4.50;;;4.20;;
13975;SDS011;7062;49.792;9.946;2024-03-02T13:37:07;4.10;;;3.80;;
13975;SDS011;7062;49.792;9.946;2024-03-02T13:39:33;4.30;;;3.90;;
13975;SDS011;7062;49.792;9.946;2024-03-02T13:42:05;4.33;;;4.03;;
13975;SDS011;7062;49.792;9.946;2024-03-02T13:44:33;5.77;;;5.27;;
13975;SDS011;7062;49.792;9.946;2024-03-02T13:47:02;5.37;;;4.97;;
13975;SDS011;7062;49.792;9.946;2024-03-02T13:49:28;5.83;;;5.33;;
13975;SDS011;7062;49.792;9.946;2024-03-02T13:52:07;4.80;;;4.40;;
13975;SDS011;7062;49.792;9.946;2024-03-02T13:54:39;4.83;;;4.40;;
13975;SDS011;7062;49.792;9.946;2024-03-02T13:57:07;4.50;;;4.10;;
13975;SDS011;7062;49.792;9.946;2024-03-02T13:59:33;4.70;;;4.20;;
13975;SDS011;7062;49.792;9.946;2024-03-02T14:02:00;4.87;;;4.47;;
13975;SDS011;7062;49.792;9.946;2024-03-02T14:04:30;4.83;;;4.33;;
13975;SDS011;7062;49.792;9.946;2024-03-02T14:07:00;5.83;;;4.10;;
13975;SDS011;7062;49.792;9.946;2024-03-02T14:09:26;4.23;;;3.83;;
13975;SDS011;7062;49.792;9.946;2024-03-02T14:11:53;3.53;;;3.23;;
13975;SDS011;7062;49.792;9.946;2024-03-02T14:14:19;4.20;;;3.87;;
13975;SDS011;7062;49.792;9.946;2024-03-02T14:16:45;3.33;;;2.93;;
13975;SDS011;7062;49.792;9.946;2024-03-02T14:19:11;2.63;;;2.07;;
13975;SDS011;7062;49.792;9.946;2024-03-02T14:21:37;2.43;;;1.77;;
13975;SDS011;7062;49.792;9.946;2024-03-02T14:24:04;1.90;;;1.80;;
13975;SDS011;7062;49.792;9.946;2024-03-02T14:26:32;1.50;;;1.40;;
13975;SDS011;7062;49.792;9.946;2024-03-02T14:28:58;3.30;;;1.60;;
13975;SDS011;7062;49.792;9.946;2024-03-02T14:31:26;1.23;;;0.90;;
13975;SDS011;7062;49.792;9.946;2024-03-02T14:33:52;3.00;;;1.33;;
13975;SDS011;7062;49.792;9.946;2024-03-02T14:36:19;1.20;;;1.10;;
13975;SDS011;7062;49.792;9.946;2024-03-02T14:38:45;1.17;;;1.07;;
13975;SDS011;7062;49.792;9.946;2024-03-02T14:41:11;2.10;;;1.00;;
13975;SDS011;7062;49.792;9.946;2024-03-02T14:43:36;2.27;;;0.90;;
13975;SDS011;7062;49.792;9.946;2024-03-02T14:46:03;1.00;;;0.90;;
13975;SDS011;7062;49.792;9.946;2024-03-02T14:48:29;2.47;;;1.03;;
13975;SDS011;7062;49.792;9.946;2024-03-02T14:50:55;2.40;;;1.20;;